Taos Pueblo, New Mexico
Current Conditions -  °F | °C
As of 12:35 PM on Thursday 23 Oct 2014 (Local Time) from KSKX Reporting Station
Clear Clear  
Wind Chill: 18°   Ceiling: Unl
Heat Index: 18°   Visibility: 10mi
Dew Point: -1°   Wind: 8mph
Humidity: 28%   Direction: 290°WNW
Pressure: 30.34"   Gusts: NA
Location:  36.4227°N, 105.509°W
Report Text: KSKX 231835Z AUTO 29007KT 10SM CLR 18/M01 A3034 RMK AO1
Loading
Personal Weather Stations






























Interactive Weather Map
Tropical Storm Tracking
New forecast layout! Learn more

10-Day Weather Forecast

Advertisements
Track Severe Weather on mobile